METAR Data
IDs: Format: Raw Decoded Include TAF

Data at: 1346 UTC 12 Dec 2018

PAII 121256Z AUTO 30011KT 10SM FEW037 M04/M11 A2926 RMK AO2 SLP913 T10441111 FZRANO
PAII 121156Z AUTO 30009G16KT 10SM CLR M04/M10 A2925 RMK AO2 SLP909 70001 T10441100 11044 21050 53006 FZRANO
PAII 121056Z AUTO 29012G17KT 10SM CLR M05/M10 A2924 RMK AO2 SLP906 T10501100 FZRANO
PAII 120956Z AUTO 31011KT 10SM CLR M05/M11 A2923 RMK AO2 SLP903 T10501106 FZRANO
PAII 120856Z AUTO 30010G18KT 10SM CLR M04/M12 A2923 RMK AO2 SLP903 T10441122 53006 FZRANO
PAII 120756Z AUTO 31012KT 10SM FEW039 M05/M10 A2923 RMK AO2 SLP900 T10501100 410061050 FZRANO
PAII 120556Z AUTO 32010G18KT 10SM SCT041 M04/M11 A2922 RMK AO2 SLP896 T10441106 11033 21044 53003 FZRANO
PAII 120456Z AUTO 30012KT 10SM BKN038 M04/M09 A2921 RMK AO2 SLP893 T10391094 FZRANO
PAII 120356Z AUTO 31010KT 10SM SCT038 M04/M09 A2920 RMK AO2 SLP891 T10441094 FZRANO
PAII 120256Z AUTO 32012KT 10SM CLR M04/M11 A2921 RMK AO2 SLP893 T10441106 50002 FZRANO
PAII 120156Z AUTO 30011KT 10SM CLR M04/M11 A2921 RMK AO2 SLP894 T10391106 FZRANO
PAII 120056Z AUTO 30013G21KT 10SM CLR M04/M10 A2920 RMK AO2 SLP892 T10391100 FZRANO
PAII 112256Z AUTO 30016G23KT 10SM CLR M03/M09 A2919 RMK AO2 SLP888 T10331094 FZRANO
PAII 112156Z AUTO 29018G24KT 10SM CLR M03/M09 A2918 RMK AO2 PK WND 29027/2144 SLP884 T10331094 FZRANO
PAII 111956Z AUTO 29022G29KT 10SM CLR M03/M10 A2913 RMK AO2 PK WND 29031/1924 SLP868 T10331100 FZRANO
PAII 111856Z AUTO 29021G30KT 10SM CLR M03/M10 A2910 RMK AO2 PK WND 29035/1809 SLP857 T10331100 FZRANO
PAII 111756Z AUTO 29021G31KT 10SM CLR M03/M09 A2907 RMK AO2 PK WND 29034/1700 SLP847 60001 T10331089 11028 21033 53036 FZRANO
PAII 111656Z AUTO 29025G36KT 10SM CLR M03/M09 A2903 RMK AO2 PK WND 29038/1559 SLP834 T10331094 FZRANO
PAII 111456Z AUTO 29027G36KT 10SM SCT031 BKN120 M03/M08 A2896 RMK AO2 PK WND 29043/1407 SLP810 60001 T10281083 51041 FZRANO
PAII 111356Z AUTO 29031G45KT 10SM BKN029 OVC110 M03/M08 A2892 RMK AO2 PK WND 29045/1350 SLP797 P0001 T10281078 FZRANO
PAII 111256Z AUTO 29031G41KT 10SM OVC027 M03/M08 A2888 RMK AO2 PK WND 30044/1201 SLP784 T10331078 FZRANO
PAII 111156Z AUTO 29031G39KT 10SM BKN023 OVC041 M03/M07 A2884 RMK AO2 PK WND 28040/1135 SNE09 SLP769 P0000 60004 70025 T10281067 10011 21033 51061 FZRANO
PAII 111056Z AUTO 29027G37KT 4SM -SN BR OVC019 M03/M06 A2878 RMK AO2 PK WND 29040/0959 UPB04E27SNE04B27 SLP749 P0000 T10331056 FZRANO
PAII 111033Z AUTO 29027G35KT 4SM -SN BR OVC015 M03/M05 A2876 RMK AO2 PK WND 29040/0959 UPB04E27SNE04B27 PRESRR P0000 FZRANO
PAII 110956Z AUTO 29027G37KT 8SM -SN OVC011 M03/M04 A2872 RMK AO2 PK WND 29039/0917 UPB0859E18B45E55SNE0859B36E45B55 SLP728 P0000 T10281039 FZRANO
PAII 110904Z AUTO 29024G33KT 3SM UP BR OVC007 M02/M03 A2867 RMK AO2 PK WND 29033/0859 UPB0859SNE0859 CIG 004V009 P0000 FZRANO
PAII 110834Z AUTO 29024G34KT 2SM -SN BR OVC005 M02/M02 A2863 RMK AO2 PK WND 28035/0758 PRESRR P0001 FZRANO
PAII 110808Z AUTO 28026G33KT 1SM -SN BR BKN005 OVC010 M01/M01 A2860 RMK AO2 PK WND 28035/0758 CIG 004V007 P0000 FZRANO
PAII 110746Z AUTO 28024G33KT 1 1/2SM -SN BR OVC005 00/M01 A2857 RMK AO2 PK WND 28033/0743 UPE24B43E44RAB24E43SNB44 CIG 003V010 PRESRR P0003 FZRANO
PAII 110728Z AUTO 28017G25KT 2SM -RA BR OVC005 01/01 A2854 RMK AO2 PK WND 26030/0702 UPE24RAB24 PRESRR P0001 FZRANO
PAII 110656Z AUTO 26020G28KT 4SM UP BR BKN005 OVC010 01/00 A2852 RMK AO2 PK WND 26028/0656 UPB07SNE07 CIG 004V007 SLP659 P0000 T00060000 FZRANO
PAII 110644Z AUTO 25019G27KT 5SM UP BR OVC005 01/00 A2851 RMK AO2 PK WND 24028/0615 UPB07SNE07 CIG 004V008 P0000 FZRANO
PAII 110613Z AUTO 24020G28KT 5SM UP BR OVC005 00/M01 A2853 RMK AO2 PK WND 24028/0610 UPB07SNE07 CIG 004V008 P0000 FZRANO
PAII 110551Z AUTO 23015G22KT 2SM -SN BR BKN005 OVC010 00/M01 A2854 RMK AO2 UPE0458B44E49SNB0458E44B49 CIG 004V007 P0000 FZRANO
PAII 110503Z AUTO 22013KT 4SM -SN BR BKN005 OVC014 00/M01 A2854 RMK AO2 UPE0458SNB0458 CIG 004V009 P0000 FZRANO
PAII 110446Z AUTO 22012KT 10SM UP FEW009 BKN014 OVC020 00/M01 A2854 RMK AO2 SNB19E32 P0000 FZRANO
PAII 110346Z AUTO 22012G17KT 8SM UP FEW008 BKN014 00/M01 A2855 RMK AO2 RAE35UPB02E06B45 P0000 FZRANO
PAII 110328Z AUTO 22011G19KT 10SM -RA SCT008 SCT014 BKN020 00/M01 A2856 RMK AO2 UPB02E06 P0000 FZRANO
PAII 110156Z AUTO 23008KT 4SM -RA BR SCT012 BKN020 01/01 A2856 RMK AO2 SLP674 P0001 T00110006 FZRANO